createdAt,value
2022-12-24T00:02:12.202Z,1.25
2022-12-24T00:05:01.182Z,1.00
2022-12-24T00:07:47.367Z,1.20
2022-12-24T00:10:32.816Z,0.80
2022-12-24T00:13:19.418Z,0.98
2022-12-24T00:16:05.683Z,1.05
2022-12-24T00:18:51.222Z,0.95
2022-12-24T00:21:36.953Z,1.33
2022-12-24T00:24:22.680Z,1.10
2022-12-24T00:27:08.243Z,1.20
2022-12-24T00:29:53.794Z,1.05
2022-12-24T00:32:39.226Z,0.98
2022-12-24T00:35:24.944Z,1.30
2022-12-24T00:38:10.410Z,1.10
2022-12-24T00:41:04.188Z,0.98
2022-12-24T00:44:10.148Z,1.08
2022-12-24T00:46:55.916Z,1.13
2022-12-24T00:49:41.574Z,1.42
2022-12-24T00:52:27.143Z,1.23
2022-12-24T00:55:12.995Z,1.20
2022-12-24T00:57:58.617Z,1.15
2022-12-24T01:00:44.254Z,1.30
2022-12-24T01:03:36.177Z,1.02
2022-12-24T01:06:22.216Z,1.10
2022-12-24T01:09:07.834Z,1.23
2022-12-24T01:11:53.637Z,1.58
2022-12-24T01:14:39.247Z,1.60
2022-12-24T01:17:24.832Z,1.40
2022-12-24T01:20:15.696Z,1.48
2022-12-24T01:23:01.421Z,1.20
2022-12-24T01:25:46.691Z,1.88
2022-12-24T01:28:32.938Z,1.10
2022-12-24T01:31:20.044Z,1.70
2022-12-24T01:34:05.568Z,1.23
2022-12-24T01:36:51.085Z,1.10
2022-12-24T01:39:36.479Z,1.45
2022-12-24T01:42:42.167Z,1.50
2022-12-24T01:45:42.616Z,1.55
2022-12-24T01:48:45.135Z,1.40
2022-12-24T01:51:56.090Z,1.25
2022-12-24T01:54:45.717Z,1.35
2022-12-24T02:00:23.345Z,1.70
2022-12-24T02:03:09.537Z,1.83
2022-12-24T02:05:58.040Z,1.40
2022-12-24T02:08:44.701Z,1.67
2022-12-24T02:11:30.881Z,1.33
2022-12-24T02:14:17.088Z,1.30
2022-12-24T02:17:20.395Z,1.30
2022-12-24T02:20:18.596Z,1.75
2022-12-24T02:23:20.382Z,1.35
2022-12-24T02:26:28.285Z,1.42
2022-12-24T02:29:35.685Z,1.52
2022-12-24T02:32:35.400Z,1.40
2022-12-24T02:35:30.425Z,1.33
2022-12-24T02:38:26.160Z,1.63
2022-12-24T02:41:22.832Z,1.33
2022-12-24T02:44:09.051Z,2.35
2022-12-24T02:46:57.191Z,2.08
2022-12-24T02:49:47.851Z,1.60
2022-12-24T02:52:42.701Z,2.33
2022-12-24T02:56:12.962Z,1.25
2022-12-24T02:59:39.604Z,1.83
2022-12-24T03:02:25.556Z,2.60
2022-12-24T03:05:31.137Z,1.75
2022-12-24T03:08:25.381Z,1.63
2022-12-24T03:11:16.357Z,1.88
2022-12-24T03:14:03.245Z,1.40
2022-12-24T03:16:50.241Z,1.83
2022-12-24T03:19:37.134Z,1.73
2022-12-24T03:22:25.236Z,1.35
2022-12-24T03:25:11.104Z,1.83
2022-12-24T03:27:57.625Z,1.88
2022-12-24T03:30:46.264Z,2.03
2022-12-24T03:33:32.644Z,2.03
2022-12-24T03:36:18.506Z,2.28
2022-12-24T03:39:04.972Z,2.00
2022-12-24T03:41:50.720Z,1.80
2022-12-24T03:44:36.225Z,1.35
2022-12-24T03:47:21.670Z,2.03
2022-12-24T03:50:08.085Z,1.52
2022-12-24T03:52:55.214Z,2.15
2022-12-24T03:55:40.763Z,1.38
2022-12-24T03:58:26.353Z,1.60
2022-12-24T04:01:12.037Z,1.45
2022-12-24T04:03:57.426Z,1.55
2022-12-24T04:06:42.876Z,2.00
2022-12-24T04:09:28.440Z,1.70
2022-12-24T04:12:13.939Z,1.92
2022-12-24T04:14:59.517Z,2.28
2022-12-24T04:17:45.231Z,1.42
2022-12-24T04:20:31.262Z,1.45
2022-12-24T04:23:16.694Z,1.98
2022-12-24T04:26:05.203Z,1.88
2022-12-24T04:28:50.639Z,1.50
2022-12-24T04:31:36.211Z,1.67
2022-12-24T04:34:21.724Z,1.90
2022-12-24T04:37:07.214Z,1.40
2022-12-24T04:39:52.829Z,1.80
2022-12-24T04:42:38.407Z,1.40
2022-12-24T04:45:24.071Z,1.70
2022-12-24T04:48:09.509Z,1.77
2022-12-24T04:50:54.998Z,1.75
2022-12-24T04:53:42.136Z,1.45
2022-12-24T04:56:31.019Z,1.92
2022-12-24T04:59:16.749Z,1.38
2022-12-24T05:02:02.554Z,2.40
2022-12-24T05:04:48.209Z,1.98
2022-12-24T05:07:34.557Z,1.60
2022-12-24T05:10:20.367Z,1.88
2022-12-24T05:13:05.896Z,2.10
2022-12-24T05:15:51.695Z,2.63
2022-12-24T05:18:37.369Z,2.17
2022-12-24T05:21:24.991Z,1.80
2022-12-24T05:24:32.006Z,2.47
2022-12-24T05:27:17.548Z,2.35
2022-12-24T05:30:03.457Z,2.38
2022-12-24T05:32:49.243Z,1.70
2022-12-24T05:35:34.862Z,2.60
2022-12-24T05:38:20.357Z,1.70
2022-12-24T05:41:06.531Z,2.35
2022-12-24T05:43:52.079Z,2.00
2022-12-24T05:46:37.935Z,3.45
2022-12-24T05:49:23.923Z,2.08
2022-12-24T05:52:09.381Z,2.88
2022-12-24T05:54:54.824Z,2.90
2022-12-24T05:57:41.445Z,2.30
2022-12-24T06:00:27.312Z,1.80
2022-12-24T06:03:12.850Z,2.30
2022-12-24T06:06:00.634Z,2.08
2022-12-24T06:08:46.689Z,2.20
2022-12-24T06:11:32.330Z,2.10
2022-12-24T06:14:17.654Z,2.17
2022-12-24T06:17:03.376Z,2.45
2022-12-24T06:19:48.867Z,2.00
2022-12-24T06:22:34.671Z,2.20
2022-12-24T06:25:20.282Z,1.80
2022-12-24T06:28:05.783Z,1.90
2022-12-24T06:30:55.800Z,1.90
2022-12-24T06:33:44.325Z,2.42
2022-12-24T06:36:30.190Z,1.95
2022-12-24T06:39:15.695Z,2.22
2022-12-24T06:42:01.253Z,2.15
2022-12-24T06:44:46.715Z,2.92
2022-12-24T06:47:32.186Z,4.68
2022-12-24T06:50:17.642Z,2.97
2022-12-24T06:53:03.091Z,2.72
2022-12-24T06:55:48.645Z,2.10
2022-12-24T06:58:35.767Z,2.63
2022-12-24T07:01:21.708Z,2.03
2022-12-24T07:04:07.385Z,2.60
2022-12-24T07:06:52.839Z,2.10
2022-12-24T07:09:38.490Z,1.90
2022-12-24T07:12:23.701Z,2.15
2022-12-24T07:15:10.397Z,1.95
2022-12-24T07:17:56.379Z,2.60
2022-12-24T07:20:42.979Z,2.42
2022-12-24T07:23:29.150Z,2.38
2022-12-24T07:26:14.610Z,2.08
2022-12-24T07:29:00.136Z,1.77
2022-12-24T07:31:45.888Z,2.40
2022-12-24T07:34:31.319Z,2.08
2022-12-24T07:37:16.881Z,1.70
2022-12-24T07:40:02.946Z,2.05
2022-12-24T07:42:48.620Z,2.60
2022-12-24T07:45:34.213Z,1.70
2022-12-24T07:48:19.580Z,2.70
2022-12-24T07:51:05.508Z,2.63
2022-12-24T07:53:51.289Z,2.00
2022-12-24T07:56:36.662Z,2.40
2022-12-24T07:59:22.277Z,1.95
2022-12-24T08:02:17.637Z,2.60
2022-12-24T08:05:03.990Z,2.10
2022-12-24T08:07:49.314Z,1.90
2022-12-24T08:10:34.785Z,2.10
2022-12-24T08:13:20.393Z,2.22
2022-12-24T08:16:06.376Z,3.28
2022-12-24T08:18:52.293Z,3.00
2022-12-24T08:21:37.649Z,2.22
2022-12-24T08:24:23.480Z,2.20
2022-12-24T08:27:08.946Z,2.25
2022-12-24T08:29:54.634Z,2.65
2022-12-24T08:32:40.491Z,2.88
2022-12-24T08:35:25.989Z,2.88
2022-12-24T08:38:11.511Z,2.40
2022-12-24T08:40:56.994Z,2.47
2022-12-24T08:43:42.463Z,2.85
2022-12-24T08:46:28.211Z,3.70
2022-12-24T08:49:13.589Z,2.75
2022-12-24T08:51:59.194Z,2.47
2022-12-24T08:54:44.896Z,2.60
2022-12-24T08:57:30.537Z,2.20
2022-12-24T09:00:16.862Z,2.95
2022-12-24T09:03:02.416Z,2.63
2022-12-24T09:05:48.424Z,1.90
2022-12-24T09:08:34.355Z,2.13
2022-12-24T09:11:20.577Z,2.22
2022-12-24T09:14:05.839Z,2.42
2022-12-24T09:16:51.244Z,2.40
2022-12-24T09:19:36.991Z,1.92
2022-12-24T09:22:22.465Z,2.20
2022-12-24T09:25:10.503Z,1.98
2022-12-24T09:27:56.017Z,2.00
2022-12-24T09:30:41.447Z,2.40
2022-12-24T09:33:29.025Z,2.45
2022-12-24T09:36:15.188Z,1.92
2022-12-24T09:39:00.960Z,2.05
2022-12-24T09:41:55.920Z,1.90
2022-12-24T09:44:51.918Z,1.70
2022-12-24T09:47:48.503Z,2.17
2022-12-24T09:51:03.322Z,1.60
2022-12-24T09:53:55.416Z,1.85
2022-12-24T09:56:44.728Z,1.85
2022-12-24T09:59:43.251Z,1.63
2022-12-24T10:02:29.330Z,2.00
2022-12-24T10:05:15.934Z,1.85
2022-12-24T10:08:34.529Z,1.77
2022-12-24T10:11:36.554Z,1.48
2022-12-24T10:14:53.777Z,1.92
2022-12-24T10:17:49.057Z,1.40
2022-12-24T10:21:02.687Z,1.48
2022-12-24T10:24:33.497Z,1.35
2022-12-24T10:27:24.750Z,1.17
2022-12-24T10:30:22.036Z,1.23
2022-12-24T10:33:22.748Z,1.38
2022-12-24T10:36:15.382Z,1.60
2022-12-24T10:39:01.284Z,1.60
2022-12-24T10:41:50.048Z,2.65
2022-12-24T10:44:35.781Z,1.37
2022-12-24T10:47:22.704Z,1.10
2022-12-24T10:50:28.126Z,1.30
2022-12-24T10:53:44.875Z,1.73
2022-12-24T10:56:30.217Z,0.90
2022-12-24T10:59:32.744Z,1.58
2022-12-24T11:02:45.055Z,1.42
2022-12-24T11:05:33.803Z,2.58
2022-12-24T11:08:20.408Z,1.55
2022-12-24T11:11:09.332Z,1.27
2022-12-24T11:13:57.396Z,0.90
2022-12-24T11:16:50.993Z,1.00
2022-12-24T11:19:40.049Z,1.00
2022-12-24T11:22:30.471Z,1.17
2022-12-24T11:25:31.791Z,1.05
2022-12-24T11:28:30.053Z,1.20
2022-12-24T11:31:20.751Z,1.10
2022-12-24T11:34:24.521Z,1.10
2022-12-24T11:37:16.346Z,1.02
2022-12-24T11:40:03.084Z,1.33
2022-12-24T11:42:53.556Z,1.15
2022-12-24T11:45:39.421Z,1.00
2022-12-24T11:48:32.051Z,1.20
2022-12-24T11:51:27.660Z,0.98
2022-12-24T11:54:22.953Z,1.30
2022-12-24T11:57:11.518Z,1.15
2022-12-24T11:59:57.413Z,1.13
2022-12-24T12:02:46.191Z,1.42
2022-12-24T12:05:35.540Z,1.02
2022-12-24T12:08:22.691Z,1.00
2022-12-24T12:11:14.211Z,0.77
2022-12-24T12:14:03.441Z,1.10
2022-12-24T12:17:06.701Z,0.88
2022-12-24T12:20:04.295Z,1.00
2022-12-24T12:22:59.158Z,1.00
2022-12-24T12:26:00.469Z,1.70
2022-12-24T12:29:02.371Z,0.98
2022-12-24T12:31:52.574Z,1.00
2022-12-24T12:34:47.840Z,0.80
2022-12-24T12:37:40.917Z,1.33
2022-12-24T12:40:50.038Z,0.90
2022-12-24T12:44:10.549Z,1.23
2022-12-24T12:47:17.525Z,1.23
2022-12-24T12:50:24.966Z,1.00
2022-12-24T12:53:16.161Z,1.20
2022-12-24T12:56:19.953Z,1.00
2022-12-24T12:59:19.251Z,1.00
2022-12-24T13:02:11.335Z,0.85
2022-12-24T13:05:34.459Z,1.30
2022-12-24T13:08:28.859Z,1.02
2022-12-24T13:11:25.952Z,1.38
2022-12-24T13:14:40.729Z,1.13
2022-12-24T13:17:50.991Z,0.82
2022-12-24T13:20:47.673Z,0.98
2022-12-24T13:23:33.429Z,1.77
2022-12-24T13:26:19.471Z,1.33
2022-12-24T13:29:47.061Z,1.08
2022-12-24T13:32:38.773Z,1.30
2022-12-24T13:35:24.611Z,1.10
2022-12-24T13:38:28.252Z,1.30
2022-12-24T13:41:38.729Z,1.33
2022-12-24T13:44:25.778Z,1.42
2022-12-24T13:47:14.615Z,2.33
2022-12-24T13:50:20.988Z,1.80
2022-12-24T13:53:32.153Z,1.35
2022-12-24T13:56:17.586Z,1.23
2022-12-24T13:59:38.619Z,1.20
2022-12-24T14:02:26.111Z,1.42
2022-12-24T14:05:23.111Z,1.00
2022-12-24T14:08:27.265Z,1.27
2022-12-24T14:11:22.956Z,1.00
2022-12-24T14:14:10.162Z,1.55
2022-12-24T14:17:01.932Z,1.40
2022-12-24T14:20:02.389Z,1.15
2022-12-24T14:22:48.866Z,1.33
2022-12-24T14:25:34.780Z,1.35
2022-12-24T14:28:28.603Z,1.52
2022-12-24T14:31:17.042Z,2.28
2022-12-24T14:34:08.209Z,2.53
2022-12-24T14:36:55.745Z,1.88
2022-12-24T14:39:46.142Z,4.97
2022-12-24T14:42:57.872Z,3.70
2022-12-24T14:46:09.061Z,3.83
2022-12-24T14:49:00.426Z,2.15
2022-12-24T14:52:37.762Z,1.88
2022-12-24T14:55:51.372Z,1.75
2022-12-24T14:58:39.941Z,1.25
2022-12-24T15:01:26.756Z,1.52
2022-12-24T15:04:12.604Z,1.55
2022-12-24T15:06:59.426Z,2.25
2022-12-24T15:09:44.656Z,2.20
2022-12-24T15:12:32.134Z,1.98
2022-12-24T15:15:19.002Z,1.92
2022-12-24T15:18:05.598Z,1.70
2022-12-24T15:20:58.633Z,1.80
2022-12-24T15:23:51.486Z,1.50
2022-12-24T15:26:37.282Z,2.25
2022-12-24T15:29:38.830Z,1.90
2022-12-24T15:32:24.804Z,1.90
2022-12-24T15:35:34.358Z,1.90
2022-12-24T15:38:29.290Z,1.50
2022-12-24T15:41:24.996Z,1.30
2022-12-24T15:44:15.584Z,1.98
2022-12-24T15:47:04.823Z,1.27
2022-12-24T15:49:52.486Z,1.50
2022-12-24T15:52:40.779Z,1.63
2022-12-24T15:55:40.404Z,1.33
2022-12-24T15:58:51.444Z,1.80
2022-12-24T16:01:38.048Z,1.85
2022-12-24T16:04:28.590Z,2.00
2022-12-24T16:07:25.551Z,1.45
2022-12-24T16:10:24.535Z,1.70
2022-12-24T16:13:21.348Z,2.80
2022-12-24T16:16:13.980Z,3.30
2022-12-24T16:19:01.196Z,8.68
2022-12-24T16:21:50.394Z,6.22
2022-12-24T16:24:36.146Z,4.57
2022-12-24T16:27:22.057Z,2.28
2022-12-24T16:30:09.318Z,2.00
2022-12-24T16:32:54.827Z,1.70
2022-12-24T16:35:40.459Z,2.20
2022-12-24T16:38:26.366Z,3.05
2022-12-24T16:41:12.080Z,4.32
2022-12-24T16:43:57.471Z,2.55
2022-12-24T16:46:42.924Z,3.03
2022-12-24T16:49:29.053Z,3.30
2022-12-24T16:52:25.921Z,3.10
2022-12-24T16:55:16.393Z,2.40
2022-12-24T16:58:01.967Z,2.72
2022-12-24T17:00:48.043Z,2.15
2022-12-24T17:03:33.737Z,1.67
2022-12-24T17:06:19.124Z,2.28
2022-12-24T17:09:05.134Z,2.33
2022-12-24T17:11:51.028Z,2.08
2022-12-24T17:14:37.911Z,2.35
2022-12-24T17:17:28.620Z,54.72
2022-12-24T17:20:17.827Z,877.38
2022-12-24T17:23:06.107Z,957.28
2022-12-24T17:25:51.664Z,999.90
2022-12-24T17:28:37.797Z,761.78
2022-12-24T17:31:24.628Z,404.92
2022-12-24T17:34:10.539Z,946.53
2022-12-24T17:36:56.858Z,373.50
2022-12-24T17:39:42.457Z,105.13
2022-12-24T17:42:28.078Z,99.75
2022-12-24T17:45:13.798Z,47.55
2022-12-24T17:47:59.311Z,31.90
2022-12-24T17:50:44.949Z,24.55
2022-12-24T17:53:30.278Z,16.83
2022-12-24T17:56:15.959Z,11.77
2022-12-24T17:59:01.914Z,10.25
2022-12-24T18:01:47.427Z,8.95
2022-12-24T18:04:32.934Z,8.48
2022-12-24T18:07:18.752Z,19.45
2022-12-24T18:10:04.810Z,19.27
2022-12-24T18:12:50.592Z,7.65
2022-12-24T18:15:38.549Z,6.13
2022-12-24T18:18:24.315Z,6.55
2022-12-24T18:21:10.783Z,9.95
2022-12-24T18:23:57.362Z,8.85
2022-12-24T18:26:43.942Z,6.55
2022-12-24T18:29:29.196Z,5.57
2022-12-24T18:32:16.956Z,4.90
2022-12-24T18:35:02.640Z,6.32
2022-12-24T18:37:48.267Z,6.32
2022-12-24T18:40:36.858Z,5.75
2022-12-24T18:43:22.766Z,5.57
2022-12-24T18:46:16.852Z,5.15
2022-12-24T18:49:02.641Z,4.93
2022-12-24T18:51:48.127Z,4.75
2022-12-24T18:54:33.679Z,4.25
2022-12-24T18:57:19.052Z,4.47
2022-12-24T19:00:05.468Z,4.00
2022-12-24T19:02:51.131Z,3.97
2022-12-24T19:05:36.997Z,3.17
2022-12-24T19:08:55.632Z,3.90
2022-12-24T19:11:30.492Z,5.53
2022-12-24T19:14:16.224Z,4.45
2022-12-24T19:17:01.864Z,4.40
2022-12-24T19:19:47.453Z,5.15
2022-12-24T19:22:32.965Z,4.78
2022-12-24T19:25:19.014Z,3.90
2022-12-24T19:28:10.473Z,3.50
2022-12-24T19:31:01.754Z,3.90
2022-12-24T19:33:49.856Z,3.63
2022-12-24T19:36:35.914Z,4.30
2022-12-24T19:39:24.144Z,4.25
2022-12-24T19:42:12.428Z,4.68
2022-12-24T19:44:57.821Z,3.83
2022-12-24T19:47:43.305Z,3.83
2022-12-24T19:50:29.906Z,4.20
2022-12-24T19:53:15.311Z,4.03
2022-12-24T19:56:00.995Z,3.40
2022-12-24T19:58:46.975Z,2.92
2022-12-24T20:01:35.017Z,3.10
2022-12-24T20:04:21.999Z,2.70
2022-12-24T20:07:07.795Z,2.35
2022-12-24T20:09:53.199Z,2.42
2022-12-24T20:12:38.721Z,2.53
2022-12-24T20:15:24.380Z,2.63
2022-12-24T20:18:11.623Z,2.50
2022-12-24T20:21:01.565Z,2.60
2022-12-24T20:23:47.625Z,2.10
2022-12-24T20:26:33.792Z,3.00
2022-12-24T20:29:19.448Z,2.75
2022-12-24T20:32:05.307Z,2.50
2022-12-24T20:34:51.013Z,2.03
2022-12-24T20:37:45.730Z,2.15
2022-12-24T20:40:31.886Z,2.58
2022-12-24T20:43:22.393Z,2.10
2022-12-24T20:46:10.623Z,3.22
2022-12-24T20:48:56.433Z,2.25
2022-12-24T20:51:42.120Z,2.08
2022-12-24T20:54:27.646Z,2.38
2022-12-24T20:57:13.446Z,5.82
2022-12-24T20:59:59.185Z,2.53
2022-12-24T21:02:44.598Z,2.75
2022-12-24T21:05:30.166Z,2.15
2022-12-24T21:08:15.782Z,2.50
2022-12-24T21:11:36.968Z,2.38
2022-12-24T21:14:25.589Z,2.55
2022-12-24T21:17:15.752Z,2.28
2022-12-24T21:20:06.040Z,1.83
2022-12-24T21:22:55.881Z,2.10
2022-12-24T21:25:44.314Z,2.15
2022-12-24T21:28:31.273Z,1.65
2022-12-24T21:31:17.277Z,2.00
2022-12-24T21:34:03.500Z,2.03
2022-12-24T21:36:49.220Z,1.95
2022-12-24T21:39:35.014Z,2.03
2022-12-24T21:42:20.514Z,2.00
2022-12-24T21:45:06.939Z,1.83
2022-12-24T21:47:52.013Z,1.60
2022-12-24T21:50:55.662Z,1.83
2022-12-24T21:53:59.838Z,2.08
2022-12-24T21:57:03.807Z,1.52
2022-12-24T21:59:51.094Z,1.73
2022-12-24T22:02:37.989Z,2.00
2022-12-24T22:05:26.113Z,2.05
2022-12-24T22:08:30.288Z,2.15
2022-12-24T22:11:34.306Z,2.30
2022-12-24T22:14:20.015Z,2.15
2022-12-24T22:17:06.086Z,2.08
2022-12-24T22:19:51.512Z,2.10
2022-12-24T22:22:37.198Z,2.10
2022-12-24T22:25:22.632Z,2.30
2022-12-24T22:28:08.412Z,1.90
2022-12-24T22:30:54.958Z,2.25
2022-12-24T22:33:40.383Z,2.50
2022-12-24T22:36:26.331Z,1.90
2022-12-24T22:39:11.851Z,1.80
2022-12-24T22:41:58.117Z,1.90
2022-12-24T22:44:43.593Z,2.05
2022-12-24T22:47:29.443Z,2.00
2022-12-24T22:50:14.943Z,1.90
2022-12-24T22:53:00.473Z,1.83
2022-12-24T22:55:54.360Z,1.65
2022-12-24T22:58:41.254Z,1.85
2022-12-24T23:01:39.429Z,1.67
2022-12-24T23:04:25.078Z,1.92
2022-12-24T23:07:12.470Z,1.60
2022-12-24T23:09:58.422Z,1.35
2022-12-24T23:13:03.998Z,1.67
2022-12-24T23:15:49.689Z,1.67
2022-12-24T23:18:35.480Z,1.13
2022-12-24T23:21:21.065Z,1.20
2022-12-24T23:24:06.808Z,0.88
2022-12-24T23:26:52.351Z,0.98
2022-12-24T23:29:37.962Z,0.90
2022-12-24T23:32:23.579Z,1.60
2022-12-24T23:35:09.434Z,1.00
2022-12-24T23:37:55.385Z,1.02
2022-12-24T23:40:42.350Z,1.00
2022-12-24T23:43:28.319Z,0.95
2022-12-24T23:46:18.799Z,1.20
2022-12-24T23:49:04.674Z,1.10
2022-12-24T23:51:50.094Z,1.50
2022-12-24T23:54:35.800Z,1.75
2022-12-24T23:57:21.180Z,2.03
